This is the latest recevied weather packets stored in our database for station/object MEGLR. If no packets are shown the sender has not sent any weather packets the latest 10 day(s).
| Time | Temp. | Humidity | Pressure | Rain* | Wind** | Luminosity | Snow |
|---|---|---|---|---|---|---|---|
| 1788304803 | 16.11° C | 84% | 0 hPa | - | - | - | - |
| 1788304202 | 16.67° C | 80% | 0 hPa | - | - | - | - |
| 1788303603 | 16.67° C | 79% | 0 hPa | - | - | - | - |
| 1788303003 | 16.67° C | 79% | 0 hPa | - | - | - | - |
| 1788302403 | 16.67° C | 80% | 0 hPa | - | - | - | - |
| 1788301203 | 16.67° C | 77% | 0 hPa | - | - | - | - |
| 1788300603 | 16.67° C | 77% | 0 hPa | - | - | - | - |
| 1788300004 | 16.67° C | 80% | 0 hPa | - | - | - | - |
| 1788299402 | 16.11° C | 83% | 0 hPa | - | - | - | - |
| 1788298803 | 16.11° C | 86% | 0 hPa | - | - | - | - |
| 1788298203 | 15.56° C | 88% | 0 hPa | - | - | - | - |
| 1788297603 | 15.56° C | 89% | 0 hPa | - | - | - | - |
| 1788297003 | 16.11° C | 85% | 0 hPa | - | - | - | - |
| 1788296404 | 16.11° C | 86% | 0 hPa | - | - | - | - |
| 1788295803 | 16.11° C | 85% | 0 hPa | - | - | - | - |
| 1788295203 | 16.11° C | 85% | 0 hPa | - | - | - | - |
| 1788294630 | 15.56° C | 88% | 0 hPa | - | - | - | - |
| 1788294003 | 15.56° C | 91% | 0 hPa | - | - | - | - |
| 1788293403 | 15.56° C | 91% | 0 hPa | - | - | - | - |
| 1788292804 | 15.56° C | 93% | 0 hPa | - | - | - | - |
| 1788292203 | 15° C | 93% | 0 hPa | - | - | - | - |
| 1788291608 | 14.44° C | 95% | 0 hPa | - | - | - | - |
| 1788291004 | 15° C | 93% | 0 hPa | - | - | - | - |
| 1788290402 | 15° C | 93% | 0 hPa | - | - | - | - |
| 1788289803 | 15° C | 91% | 0 hPa | - | - | - | - |
* Rain since midnight (hover to see other rain measurements)
** Current wind speed in m/s (hover to see current wind gust speed)